Time;durP1;ratioP1;P1;durP2;ratioP2;P2;SDS_P1;SDS_P2;PMS_P1;PMS_P2;Temp;Humidity;BMP_temperature;BMP_pressure;BME280_temperature;BME280_humidity;BME280_pressure;Samples;Min_cycle;Max_cycle;Signal;HPM_P1;HPM_P2
2023/05/23 00:00:23;;;;;;;;;30.75;24.25;;;;;17.27;64.35;101261.38;4874689;29;46320;-77
2023/05/23 00:02:48;;;;;;;;;27.50;24.75;;;;;17.29;64.39;101273.50;4874269;29;47189;-75
2023/05/23 00:05:16;;;;;;;;;29.75;25.00;;;;;17.29;64.48;101267.34;4876022;29;45930;-77
2023/05/23 00:07:43;;;;;;;;;30.75;26.25;;;;;17.28;64.34;101274.47;4875024;29;45598;-76
2023/05/23 00:10:08;;;;;;;;;28.75;24.00;;;;;17.24;65.21;101273.06;4874066;29;46734;-76
2023/05/23 00:12:36;;;;;;;;;27.00;21.00;;;;;17.23;64.62;101274.03;4872959;29;46115;-76
2023/05/23 00:15:02;;;;;;;;;20.25;17.00;;;;;17.23;64.52;101273.19;4874059;29;45781;-77
2023/05/23 00:17:27;;;;;;;;;28.00;26.25;;;;;17.20;64.36;101269.03;4874157;29;46083;-75
2023/05/23 00:19:54;;;;;;;;;30.50;23.50;;;;;17.20;64.70;101259.28;4873960;29;47482;-76
2023/05/23 00:22:21;;;;;;;;;31.25;24.00;;;;;17.19;64.45;101259.41;4873875;29;47006;-76
2023/05/23 00:24:46;;;;;;;;;28.00;24.75;;;;;17.17;64.43;101263.97;4874320;29;45797;-76
2023/05/23 00:27:11;;;;;;;;;30.50;21.75;;;;;17.11;63.86;101249.47;4873900;29;45722;-76
2023/05/23 00:29:37;;;;;;;;;25.75;23.00;;;;;17.10;64.71;101254.94;4874089;29;46488;-76
2023/05/23 00:32:02;;;;;;;;;28.25;24.00;;;;;17.11;64.75;101249.47;4873642;29;46581;-76
2023/05/23 00:34:27;;;;;;;;;19.25;17.75;;;;;17.06;64.61;101250.84;4873954;29;45701;-77
2023/05/23 00:36:53;;;;;;;;;28.00;26.25;;;;;17.08;64.12;101255.06;4873948;29;45882;-75
2023/05/23 00:39:18;;;;;;;;;31.25;25.75;;;;;17.05;64.67;101262.44;4904167;28;46377;-75
2023/05/23 00:41:47;;;;;;;;;26.25;24.00;;;;;17.05;64.58;101255.34;4874103;29;46014;-74
2023/05/23 00:44:13;;;;;;;;;23.50;23.25;;;;;16.97;64.27;101260.44;4872771;29;45861;-76
2023/05/23 00:46:41;;;;;;;;;29.25;26.50;;;;;16.90;64.42;101255.81;4873905;29;46090;-76
2023/05/23 00:49:06;;;;;;;;;25.25;23.00;;;;;16.89;64.77;101268.22;4873719;29;46542;-76
2023/05/23 00:51:32;;;;;;;;;25.75;23.75;;;;;16.86;64.37;101281.72;4873457;29;46056;-76
2023/05/23 00:54:00;;;;;;;;;24.00;22.25;;;;;16.83;64.32;101270.56;4872679;29;45691;-75
2023/05/23 00:56:25;;;;;;;;;27.25;24.25;;;;;16.75;64.80;101260.63;4873571;29;46332;-76
2023/05/23 00:58:53;;;;;;;;;27.75;24.75;;;;;16.74;64.52;101261.59;4873634;29;48315;-76
2023/05/23 01:01:19;;;;;;;;;23.75;20.00;;;;;16.73;64.11;101258.13;4873295;29;46627;-75
2023/05/23 01:03:47;;;;;;;;;26.75;25.50;;;;;16.69;64.48;101254.06;4873911;29;46042;-76
2023/05/23 01:06:12;;;;;;;;;26.25;22.75;;;;;16.70;64.54;101262.84;4873261;29;45843;-75
2023/05/23 01:08:38;;;;;;;;;26.75;26.00;;;;;16.63;64.76;101251.94;4873421;29;46752;-76
2023/05/23 01:11:21;;;;;;;;;25.50;24.50;;;;;16.57;65.10;101248.97;4873420;29;47136;-76
2023/05/23 01:14:16;;;;;;;;;26.00;22.00;;;;;16.56;64.88;101248.13;4863263;29;45826;-76
2023/05/23 01:17:10;;;;;;;;;28.75;25.75;;;;;16.54;64.83;101250.06;4872448;29;46044;-76
2023/05/23 01:19:55;;;;;;;;;28.00;26.75;;;;;16.53;64.88;101258.97;4873303;29;46258;-76
2023/05/23 01:22:38;;;;;;;;;26.25;24.00;;;;;16.38;64.76;101239.97;4872861;29;47300;-76
2023/05/23 01:25:20;;;;;;;;;29.75;26.75;;;;;16.49;64.50;101262.00;4873822;29;45802;-77
2023/05/23 01:27:54;;;;;;;;;26.25;22.00;;;;;16.48;65.42;101265.63;4873031;29;46057;-77
2023/05/23 01:30:22;;;;;;;;;24.00;19.50;;;;;16.47;65.52;101258.66;4872858;29;47419;-76
2023/05/23 01:32:52;;;;;;;;;27.25;24.25;;;;;16.43;65.06;101266.00;4876662;29;46736;-76
2023/05/23 01:35:25;;;;;;;;;22.50;20.00;;;;;16.39;65.13;101269.91;4903302;28;45885;-76
2023/05/23 01:37:55;;;;;;;;;31.25;26.75;;;;;16.33;65.61;101267.75;4872197;29;45843;-78
2023/05/23 01:40:22;;;;;;;;;29.75;27.25;;;;;16.32;65.52;101266.09;4872892;29;46474;-76
2023/05/23 01:42:48;;;;;;;;;25.00;22.75;;;;;16.22;65.51;101263.38;4873255;29;47831;-77
2023/05/23 01:45:16;;;;;;;;;25.75;20.75;;;;;16.25;65.53;101270.19;4873642;29;45917;-76
2023/05/23 01:47:42;;;;;;;;;26.50;23.00;;;;;16.22;65.36;101270.47;4870594;29;45718;-76
2023/05/23 01:50:09;;;;;;;;;24.75;24.50;;;;;16.15;65.62;101266.66;4873320;29;46580;-77
2023/05/23 01:52:34;;;;;;;;;27.00;25.25;;;;;16.09;65.28;101261.88;4872920;29;46234;-77
2023/05/23 01:55:05;;;;;;;;;25.25;22.25;;;;;16.24;65.92;101279.13;4873631;29;46105;-76
2023/05/23 01:57:32;;;;;;;;;26.75;25.00;;;;;16.23;65.57;101278.28;4873345;29;46010;-76
2023/05/23 01:59:57;;;;;;;;;29.75;24.25;;;;;16.24;65.34;101274.69;4873546;29;47850;-77
2023/05/23 02:02:23;;;;;;;;;25.25;23.50;;;;;16.24;65.40;101277.31;4872228;29;47208;-76
2023/05/23 02:04:48;;;;;;;;;31.75;27.75;;;;;16.23;65.85;101267.72;4873284;29;46234;-77
2023/05/23 02:07:14;;;;;;;;;26.75;24.25;;;;;16.14;65.53;101259.72;4872990;29;45848;-75
2023/05/23 02:09:40;;;;;;;;;28.75;25.50;;;;;16.24;65.35;101276.47;4872868;29;46502;-76
2023/05/23 02:12:06;;;;;;;;;33.00;26.25;;;;;16.23;65.49;101270.34;4872464;29;46192;-77
2023/05/23 02:14:32;;;;;;;;;28.50;24.50;;;;;16.21;66.08;101263.50;4873172;29;45768;-76
2023/05/23 02:16:57;;;;;;;;;33.75;27.25;;;;;16.21;65.64;101269.63;4873756;29;46013;-76
2023/05/23 02:19:22;;;;;;;;;31.25;25.00;;;;;16.20;65.89;101273.25;4880967;29;47620;-76
2023/05/23 02:21:48;;;;;;;;;28.50;24.75;;;;;16.11;65.71;101265.25;4875110;29;46904;-76
2023/05/23 02:24:13;;;;;;;;;24.25;21.75;;;;;16.06;65.99;101268.28;4875719;29;45766;-75
2023/05/23 02:26:38;;;;;;;;;27.75;24.00;;;;;16.15;66.54;101278.06;4875383;29;45815;-75
2023/05/23 02:29:04;;;;;;;;;19.25;17.75;;;;;16.15;66.03;101280.72;4875924;29;46563;-74
2023/05/23 02:31:30;;;;;;;;;25.50;24.50;;;;;16.14;65.39;101283.50;4875678;29;46023;-75
2023/05/23 02:33:55;;;;;;;;;26.25;21.75;;;;;16.11;65.72;101276.66;4875775;29;45655;-76
2023/05/23 02:36:20;;;;;;;;;27.75;27.50;;;;;16.13;65.55;101273.91;4875299;29;45754;-76
2023/05/23 02:38:46;;;;;;;;;28.00;23.50;;;;;16.14;65.95;101270.28;4875801;29;46195;-75
2023/05/23 02:41:11;;;;;;;;;30.25;25.00;;;;;16.14;66.08;101280.88;4875162;29;47043;-75
2023/05/23 02:43:37;;;;;;;;;28.50;26.75;;;;;16.12;66.31;101282.78;4875783;29;45627;-76
2023/05/23 02:46:02;;;;;;;;;28.00;25.00;;;;;16.09;66.14;101278.59;4875287;29;45801;-75
2023/05/23 02:48:27;;;;;;;;;34.75;28.75;;;;;16.08;66.57;101284.03;4875810;29;47236;-76
2023/05/23 02:50:54;;;;;;;;;30.50;28.25;;;;;16.06;66.36;101270.94;4875795;29;47130;-76
2023/05/23 02:53:19;;;;;;;;;28.00;26.00;;;;;15.91;66.79;101254.53;4875622;29;45757;-76
2023/05/23 02:55:45;;;;;;;;;33.25;31.50;;;;;16.01;66.69;101274.91;4876028;29;46763;-76
2023/05/23 02:58:10;;;;;;;;;29.50;26.00;;;;;15.96;66.75;101275.31;4875249;29;47363;-75
2023/05/23 03:00:37;;;;;;;;;37.00;30.75;;;;;15.94;66.80;101298.38;4874695;29;45786;-76
2023/05/23 03:03:02;;;;;;;;;36.00;31.75;;;;;15.89;66.99;101287.34;4875734;29;45923;-76
2023/05/23 03:05:28;;;;;;;;;32.00;28.50;;;;;15.86;66.93;101285.81;4875827;29;46347;-76
2023/05/23 03:07:53;;;;;;;;;26.75;24.00;;;;;15.85;66.77;101283.28;4874851;29;46397;-76
2023/05/23 03:10:19;;;;;;;;;29.50;24.00;;;;;15.82;66.64;101284.34;4874608;29;46166;-76
2023/05/23 03:12:46;;;;;;;;;25.00;23.25;;;;;15.76;67.09;101282.22;4875479;29;45830;-75
2023/05/23 03:15:11;;;;;;;;;29.25;25.75;;;;;15.70;66.77;101277.47;4875199;29;45703;-74
2023/05/23 03:17:37;;;;;;;;;32.75;29.75;;;;;15.75;66.98;101296.41;4874344;29;47478;-77
2023/05/23 03:20:03;;;;;;;;;33.00;24.50;;;;;15.66;67.06;101273.38;4875246;29;46012;-75
2023/05/23 03:22:29;;;;;;;;;25.00;23.75;;;;;15.73;67.17;101300.97;4874781;29;46332;-76
2023/05/23 03:24:55;;;;;;;;;25.00;21.50;;;;;15.68;67.22;101291.75;4875164;29;45790;-76
2023/05/23 03:27:20;;;;;;;;;29.50;29.00;;;;;15.62;67.68;101277.22;4874444;29;46429;-75
2023/05/23 03:29:46;;;;;;;;;28.75;25.25;;;;;15.58;67.26;101293.44;4874775;29;45760;-75
2023/05/23 03:32:12;;;;;;;;;30.00;25.50;;;;;15.54;67.38;101298.16;4874626;29;45821;-76
2023/05/23 03:34:37;;;;;;;;;31.50;29.25;;;;;15.46;67.26;101289.97;4875470;29;45697;-76
2023/05/23 03:37:03;;;;;;;;;31.50;29.00;;;;;15.47;67.61;101316.25;4874465;29;46763;-76
2023/05/23 03:39:28;;;;;;;;;34.00;29.00;;;;;15.39;67.44;101291.41;4889289;29;46444;-76
2023/05/23 03:41:54;;;;;;;;;31.25;27.00;;;;;15.38;67.03;101310.88;4874112;29;45775;-77
2023/05/23 03:44:19;;;;;;;;;32.75;30.00;;;;;15.39;67.52;101323.94;4875250;29;45818;-76
2023/05/23 03:46:44;;;;;;;;;33.50;29.00;;;;;15.37;67.89;101319.75;4873286;29;48757;-77
2023/05/23 03:49:10;;;;;;;;;35.25;33.00;;;;;15.33;67.83;101319.13;4873579;29;47221;-76
2023/05/23 03:51:35;;;;;;;;;33.75;29.25;;;;;15.30;67.38;101318.56;4873807;29;45898;-76
2023/05/23 03:54:00;;;;;;;;;32.75;29.00;;;;;15.24;67.70;101329.59;4874911;29;46043;-76
2023/05/23 03:56:26;;;;;;;;;29.25;24.25;;;;;15.21;68.88;101316.66;4873871;29;47339;-76
2023/05/23 03:58:51;;;;;;;;;32.50;30.75;;;;;15.19;68.73;101319.41;4874418;29;45847;-77
2023/05/23 04:01:16;;;;;;;;;32.50;29.25;;;;;15.15;68.87;101325.06;4870444;29;45642;-77
2023/05/23 04:03:42;;;;;;;;;30.00;25.50;;;;;15.09;69.21;101324.56;4874598;29;45572;-76
2023/05/23 04:06:07;;;;;;;;;29.75;28.25;;;;;15.04;69.29;101339.09;4874371;29;45681;-76
2023/05/23 04:08:32;;;;;;;;;31.50;27.50;;;;;14.82;69.27;101316.16;4874592;29;46111;-75
2023/05/23 04:11:00;;;;;;;;;24.50;21.75;;;;;14.91;69.70;101331.28;4875209;29;45919;-75
2023/05/23 04:13:26;;;;;;;;;27.50;24.75;;;;;14.87;69.31;101335.13;4875094;29;46083;-76
2023/05/23 04:15:51;;;;;;;;;30.75;27.25;;;;;14.83;69.38;101330.22;4874507;29;45686;-77
2023/05/23 04:18:17;;;;;;;;;36.25;31.50;;;;;14.81;69.72;101326.84;4875132;29;46210;-75
2023/05/23 04:20:42;;;;;;;;;34.50;30.25;;;;;14.78;69.13;101330.56;4875625;29;45697;-76
2023/05/23 04:23:07;;;;;;;;;35.00;28.00;;;;;14.78;69.69;101335.00;4875697;29;46421;-76
2023/05/23 04:25:33;;;;;;;;;36.00;29.50;;;;;14.76;69.92;101337.75;4874728;29;46583;-76
2023/05/23 04:27:59;;;;;;;;;27.00;25.75;;;;;14.74;70.21;101342.28;4903844;28;46429;-75
2023/05/23 04:30:25;;;;;;;;;36.25;30.75;;;;;14.70;69.65;101332.94;4904396;28;45572;-76
2023/05/23 04:32:51;;;;;;;;;32.50;27.25;;;;;14.68;69.96;101337.50;4874412;29;45711;-77
2023/05/23 04:35:16;;;;;;;;;29.75;25.00;;;;;14.67;69.64;101347.22;4875263;29;45619;-77
2023/05/23 04:37:44;;;;;;;;;29.50;27.00;;;;;14.68;69.16;101337.50;4880571;29;45998;-75
2023/05/23 04:40:10;;;;;;;;;27.50;24.00;;;;;14.67;69.58;101327.91;4873045;29;45720;-76
2023/05/23 04:42:35;;;;;;;;;26.00;24.25;;;;;14.71;69.64;101337.25;4873621;29;46390;-76
2023/05/23 04:45:02;;;;;;;;;26.50;23.50;;;;;14.67;70.16;101341.09;4874230;29;46377;-76
2023/05/23 04:47:28;;;;;;;;;27.25;23.50;;;;;14.72;69.64;101346.88;4872462;29;46510;-75
2023/05/23 04:49:54;;;;;;;;;27.75;23.75;;;;;14.68;69.81;101342.78;4873930;29;45777;-75
2023/05/23 04:52:20;;;;;;;;;23.75;21.25;;;;;14.69;70.58;101344.44;4873398;29;45635;-76
2023/05/23 04:54:47;;;;;;;;;30.75;28.00;;;;;14.72;70.28;101360.03;4874043;29;46539;-76
2023/05/23 04:57:13;;;;;;;;;26.00;23.00;;;;;14.63;70.10;101355.44;4873083;29;47253;-76
2023/05/23 04:59:38;;;;;;;;;24.25;21.00;;;;;14.66;71.02;101352.59;4873677;29;45769;-77
2023/05/23 05:02:05;;;;;;;;;26.25;23.50;;;;;14.61;70.81;101352.09;4873487;29;46032;-78
2023/05/23 05:04:30;;;;;;;;;22.50;19.75;;;;;14.59;70.47;101344.31;4873896;29;46364;-76
2023/05/23 05:06:56;;;;;;;;;18.75;17.50;;;;;14.55;70.46;101345.50;4873123;29;45808;-77
2023/05/23 05:09:21;;;;;;;;;25.25;21.75;;;;;14.53;70.88;101355.31;4873816;29;45745;-76
2023/05/23 05:11:47;;;;;;;;;26.75;21.25;;;;;14.54;70.95;101354.38;4873011;29;45869;-77
2023/05/23 05:14:12;;;;;;;;;23.00;23.00;;;;;14.55;70.89;101355.22;4874040;29;46925;-75
2023/05/23 05:16:37;;;;;;;;;22.75;19.00;;;;;14.50;70.64;101350.28;4872704;29;47097;-77
2023/05/23 05:19:03;;;;;;;;;22.25;20.75;;;;;14.56;70.34;101356.91;4873992;29;45735;-77
2023/05/23 05:21:28;;;;;;;;;24.25;20.75;;;;;14.58;70.40;101363.72;4873059;29;45689;-76
2023/05/23 05:23:53;;;;;;;;;18.50;16.25;;;;;14.52;70.41;101353.63;4873361;29;47211;-76
2023/05/23 05:26:19;;;;;;;;;22.25;18.00;;;;;14.64;70.92;101357.13;4872813;29;46158;-76
2023/05/23 05:28:44;;;;;;;;;18.75;18.50;;;;;14.59;70.74;101359.28;4873757;29;45751;-75
2023/05/23 05:31:13;;;;;;;;;23.25;18.50;;;;;14.61;70.73;101357.38;4873064;29;45644;-77
2023/05/23 05:33:40;;;;;;;;;19.25;17.50;;;;;14.61;70.95;101360.88;4873298;29;47343;-77
2023/05/23 05:36:06;;;;;;;;;19.00;17.50;;;;;14.63;71.20;101353.66;4872652;29;47294;-76
2023/05/23 05:38:31;;;;;;;;;22.00;18.25;;;;;14.63;70.95;101358.94;4873854;29;45751;-77
2023/05/23 05:40:56;;;;;;;;;22.25;19.50;;;;;14.64;71.11;101365.91;4873083;29;45930;-76
2023/05/23 05:43:22;;;;;;;;;23.25;20.75;;;;;14.63;71.36;101363.38;4872943;29;45712;-77
2023/05/23 05:45:47;;;;;;;;;19.75;17.75;;;;;14.63;71.06;101352.81;4876764;28;45726;-74
2023/05/23 05:48:13;;;;;;;;;20.50;18.00;;;;;14.65;70.88;101362.31;4877483;29;45634;-75
2023/05/23 05:50:38;;;;;;;;;18.00;16.50;;;;;14.60;71.03;101366.25;4877631;29;45684;-77
2023/05/23 05:53:03;;;;;;;;;13.25;13.25;;;;;14.67;70.96;101373.59;4879777;29;47545;-76
2023/05/23 05:55:29;;;;;;;;;19.75;18.25;;;;;14.68;70.88;101367.34;4879136;29;46893;-75
2023/05/23 05:57:54;;;;;;;;;12.25;11.50;;;;;14.70;71.01;101378.63;4880642;29;45589;-75
2023/05/23 06:00:20;;;;;;;;;18.00;14.50;;;;;14.73;71.25;101374.94;4880740;29;45646;-75
2023/05/23 06:02:46;;;;;;;;;22.25;18.00;;;;;14.68;70.92;101375.25;4880286;29;46646;-75
2023/05/23 06:05:15;;;;;;;;;20.00;17.50;;;;;14.75;70.89;101398.53;4880613;29;45701;-74
2023/05/23 06:07:41;;;;;;;;;18.00;15.50;;;;;14.76;70.89;101393.16;4879824;29;45923;-75
2023/05/23 06:10:07;;;;;;;;;18.25;16.75;;;;;14.77;70.83;101392.19;4878802;29;45662;-73
2023/05/23 06:12:33;;;;;;;;;19.25;16.25;;;;;14.75;70.82;101377.44;4878772;29;46574;-74
2023/05/23 06:14:59;;;;;;;;;16.75;14.75;;;;;14.78;71.10;101385.97;4880726;29;45778;-74
2023/05/23 06:17:24;;;;;;;;;17.50;15.50;;;;;14.79;70.81;101382.34;4880220;29;45726;-74
2023/05/23 06:19:50;;;;;;;;;12.25;11.00;;;;;14.79;71.06;101405.28;4880492;29;45641;-75
2023/05/23 06:22:15;;;;;;;;;18.00;17.25;;;;;14.78;71.04;101388.59;4880418;29;46258;-75
2023/05/23 06:24:40;;;;;;;;;11.50;11.00;;;;;14.70;70.78;101368.06;4880027;29;46248;-74
2023/05/23 06:27:06;;;;;;;;;22.50;18.00;;;;;14.76;71.17;101389.66;4880076;29;45648;-74
2023/05/23 06:29:31;;;;;;;;;16.75;14.25;;;;;14.75;71.44;101388.81;4880599;29;45732;-74
2023/05/23 06:31:56;;;;;;;;;18.00;17.50;;;;;14.70;71.47;101386.53;4880148;29;46297;-74
2023/05/23 06:34:22;;;;;;;;;22.25;18.00;;;;;14.76;71.05;101398.41;4879966;29;45962;-75
2023/05/23 06:36:47;;;;;;;;;17.25;17.25;;;;;14.70;71.17;101383.06;4879945;29;45606;-74
2023/05/23 06:39:13;;;;;;;;;18.50;18.25;;;;;14.75;70.89;101388.81;4894599;29;45953;-74
2023/05/23 06:45:00;;;;;;;;;19.00;17.00;;;;;14.84;71.31;101403.13;4879984;29;46048;-75
2023/05/23 06:47:25;;;;;;;;;16.00;13.00;;;;;14.85;71.33;101410.06;4879757;29;45461;-74
2023/05/23 06:49:51;;;;;;;;;22.50;17.25;;;;;14.84;71.16;101406.59;4879801;29;45838;-74
2023/05/23 06:52:17;;;;;;;;;22.00;18.00;;;;;14.88;71.04;101407.19;4879736;29;46815;-74
2023/05/23 06:54:42;;;;;;;;;24.75;21.25;;;;;14.86;70.99;101409.09;4879584;29;47350;-74
2023/05/23 06:57:09;;;;;;;;;22.00;20.50;;;;;14.90;71.02;101410.56;4879573;29;45624;-74
2023/05/23 10:47:00;;;;;;;;;22.00;21.00;;;;;15.18;72.06;101513.06;5104566;27;46180;-79
2023/05/23 10:49:42;;;;;;;;;18.75;15.50;;;;;15.34;71.52;101523.28;5088216;27;45875;-80
2023/05/23 10:52:10;;;;;;;;;17.25;17.00;;;;;15.44;71.34;101506.63;5083927;27;45761;-79
2023/05/23 10:54:42;;;;;;;;;16.50;15.75;;;;;15.55;70.81;101497.91;5082315;27;46612;-80
2023/05/23 10:57:10;;;;;;;;;26.50;23.00;;;;;15.63;70.51;101499.97;5067470;27;47030;-78
2023/05/23 10:59:37;;;;;;;;;21.00;17.75;;;;;15.71;70.13;101492.28;5067504;27;45883;-80
2023/05/23 11:02:06;;;;;;;;;22.25;18.75;;;;;15.80;69.26;101510.06;5067888;27;46000;-79
2023/05/23 11:04:31;;;;;;;;;18.25;18.25;;;;;15.87;69.23;101509.44;5067218;27;45950;-79
2023/05/23 11:06:57;;;;;;;;;17.75;16.75;;;;;15.94;68.97;101500.06;5069568;27;46070;-79
2023/05/23 11:09:23;;;;;;;;;21.50;19.50;;;;;15.99;68.83;101507.63;5076524;27;46644;-79
2023/05/23 11:11:51;;;;;;;;;17.75;16.50;;;;;16.06;68.56;101497.41;5086972;27;45688;-78
2023/05/23 11:14:18;;;;;;;;;21.00;19.50;;;;;16.13;68.14;101506.56;5076152;27;46052;-80
2023/05/23 11:16:45;;;;;;;;;21.75;20.00;;;;;16.17;67.66;101500.03;5077060;27;46594;-82
2023/05/23 11:19:17;;;;;;;;;19.00;16.25;;;;;16.22;67.25;101500.53;5086447;27;45780;-80
2023/05/23 11:21:48;;;;;;;;;23.75;21.00;;;;;16.25;66.67;101511.69;5083229;27;45922;-78
2023/05/23 11:24:13;;;;;;;;;21.75;18.75;;;;;16.28;66.27;101515.91;5081669;27;46793;-82
2023/05/23 11:26:38;;;;;;;;;16.00;15.50;;;;;16.30;66.09;101500.75;5083103;27;45623;-78
2023/05/23 11:29:08;;;;;;;;;16.50;15.00;;;;;16.33;66.38;101511.91;5091574;27;46305;-77
2023/05/23 11:31:37;;;;;;;;;25.25;21.50;;;;;16.32;65.64;101499.66;5087435;27;45849;-77
2023/05/23 11:34:02;;;;;;;;;23.00;19.00;;;;;16.33;65.65;101489.91;5080551;27;46564;-79
2023/05/23 11:36:28;;;;;;;;;19.75;18.00;;;;;16.40;65.56;101498.19;5079726;27;46087;-76
2023/05/23 11:38:54;;;;;;;;;20.50;19.25;;;;;16.45;65.83;101504.78;5087301;27;45801;-79
2023/05/23 11:41:20;;;;;;;;;20.75;19.50;;;;;16.51;64.97;101499.00;5087707;27;45587;-77
2023/05/23 11:43:52;;;;;;;;;26.25;20.00;;;;;16.57;64.96;101501.13;5082021;27;45775;-78
2023/05/23 11:46:18;;;;;;;;;21.00;18.00;;;;;16.61;64.29;101501.78;5067376;27;46910;-76
2023/05/23 11:48:47;;;;;;;;;22.25;20.25;;;;;16.70;64.28;101498.34;5072587;28;45838;-77
2023/05/23 11:51:14;;;;;;;;;23.00;20.00;;;;;16.77;64.07;101499.53;5060665;27;46070;-76
2023/05/23 11:53:40;;;;;;;;;21.50;20.50;;;;;16.84;63.48;101494.59;5070688;28;45647;-78
2023/05/23 11:56:05;;;;;;;;;20.75;18.50;;;;;16.91;63.85;101490.44;5052058;28;45773;-77
2023/05/23 11:58:36;;;;;;;;;21.50;20.25;;;;;17.00;63.18;101482.59;5053182;28;45708;-78
2023/05/23 12:01:06;;;;;;;;;19.75;18.25;;;;;17.10;62.43;101486.13;5067279;28;45757;-79
2023/05/23 12:03:34;;;;;;;;;22.00;18.00;;;;;17.17;62.17;101481.13;5083992;27;47727;-80
2023/05/23 12:06:00;;;;;;;;;19.25;17.50;;;;;17.24;62.15;101484.94;5070210;27;46071;-78
2023/05/23 12:08:26;;;;;;;;;20.75;18.75;;;;;17.28;62.15;101482.88;5052934;28;45809;-77
2023/05/23 12:11:01;;;;;;;;;19.50;17.00;;;;;17.35;62.34;101484.88;5053409;28;45865;-81
2023/05/23 12:13:28;;;;;;;;;20.75;19.75;;;;;17.41;62.41;101497.59;5063364;28;46401;-79
2023/05/23 12:15:59;;;;;;;;;18.00;17.50;;;;;17.44;61.63;101486.72;5054786;27;45986;-80
2023/05/23 12:18:28;;;;;;;;;19.00;18.50;;;;;17.46;61.32;101482.16;5056917;28;45686;-76
2023/05/23 12:20:54;;;;;;;;;18.75;18.00;;;;;17.54;60.29;101498.22;5052879;28;45813;-80
2023/05/23 12:23:24;;;;;;;;;18.75;17.75;;;;;17.57;60.67;101494.47;5053215;28;45729;-80
2023/05/23 12:25:54;;;;;;;;;21.00;18.75;;;;;17.57;60.10;101482.06;5051576;28;47484;-81
2023/05/23 12:28:34;;;;;;;;;21.25;16.25;;;;;17.65;60.52;101481.44;5062695;27;45796;-80
2023/05/23 12:31:11;;;;;;;;;19.50;18.25;;;;;17.71;60.79;101482.69;5067734;28;45768;-77
2023/05/23 12:33:43;;;;;;;;;18.50;17.75;;;;;17.75;60.19;101489.44;5056586;27;45658;-77
2023/05/23 12:36:10;;;;;;;;;19.25;17.00;;;;;17.76;60.19;101468.06;5063273;28;46279;-78
2023/05/23 12:38:37;;;;;;;;;20.75;17.00;;;;;17.81;60.51;101470.34;5073866;27;46141;-76
2023/05/23 12:41:10;;;;;;;;;20.25;17.75;;;;;17.85;60.29;101477.03;5066248;27;45999;-77
2023/05/23 12:43:50;;;;;;;;;17.00;16.00;;;;;17.92;59.68;101462.28;5061772;28;45836;-76
2023/05/23 12:46:15;;;;;;;;;18.50;16.50;;;;;17.98;58.63;101474.97;5061411;28;45660;-77
2023/05/23 12:48:40;;;;;;;;;18.25;16.25;;;;;18.02;57.38;101460.50;5072739;27;45912;-78
2023/05/23 12:51:06;;;;;;;;;18.25;15.75;;;;;18.11;58.99;101457.00;5066713;27;45520;-78
2023/05/23 12:53:31;;;;;;;;;16.75;14.75;;;;;18.19;58.60;101462.47;5072515;27;45598;-78
2023/05/23 12:55:57;;;;;;;;;20.75;15.50;;;;;18.28;57.24;101458.16;5071675;27;46123;-78
2023/05/23 12:58:22;;;;;;;;;18.50;16.00;;;;;18.34;56.97;101458.44;5071923;27;45641;-77
2023/05/23 13:00:48;;;;;;;;;18.25;15.25;;;;;18.39;56.95;101440.31;5073013;27;45623;-79
2023/05/23 13:03:13;;;;;;;;;8.25;8.00;;;;;18.46;56.31;101457.31;5072162;28;45777;-81
2023/05/23 13:05:38;;;;;;;;;14.75;12.25;;;;;18.55;55.61;101447.75;5071665;27;46191;-79
2023/05/23 13:08:05;;;;;;;;;12.50;11.00;;;;;18.61;56.08;101446.34;5059163;27;46004;-79
2023/05/23 13:10:31;;;;;;;;;14.25;13.00;;;;;18.72;55.94;101433.75;5071124;28;46108;-81
2023/05/23 13:12:56;;;;;;;;;13.00;12.75;;;;;18.82;55.06;101420.47;5068442;27;46452;-78
2023/05/23 13:15:21;;;;;;;;;12.50;11.00;;;;;18.90;54.90;101439.16;5061832;28;45703;-82
2023/05/23 13:17:48;;;;;;;;;12.00;11.50;;;;;18.98;53.14;101444.63;5068222;27;45643;-83
2023/05/23 13:20:14;;;;;;;;;11.50;11.00;;;;;19.07;52.08;101461.50;5062778;28;45579;-80
2023/05/23 13:22:39;;;;;;;;;14.25;14.00;;;;;19.11;54.61;101447.78;5068323;27;45592;-79
2023/05/23 13:25:07;;;;;;;;;13.75;9.50;;;;;19.14;54.59;101434.25;5061266;28;46247;-82
2023/05/23 13:27:32;;;;;;;;;12.00;11.00;;;;;19.22;53.95;101429.03;5072222;27;45824;-79
2023/05/23 13:29:58;;;;;;;;;14.00;12.75;;;;;19.26;52.68;101419.81;5066403;27;45788;-79
2023/05/23 13:32:23;;;;;;;;;14.50;13.25;;;;;19.38;52.59;101430.25;5054413;28;47858;-77
2023/05/23 13:34:49;;;;;;;;;11.00;10.00;;;;;19.42;52.87;101421.84;5060063;28;46589;-79
2023/05/23 13:37:14;;;;;;;;;12.50;12.25;;;;;19.51;53.37;101422.81;5069162;28;45673;-81
2023/05/23 13:39:40;;;;;;;;;12.25;11.00;;;;;19.57;51.52;101436.34;5072186;28;45568;-80
2023/05/23 13:42:06;;;;;;;;;10.25;9.25;;;;;19.57;50.67;101423.06;5071596;27;45733;-79
2023/05/23 13:44:32;;;;;;;;;13.50;10.50;;;;;19.61;51.00;101426.25;5070745;28;45978;-79
2023/05/23 13:47:11;;;;;;;;;10.00;8.00;;;;;19.66;51.04;101427.47;5069133;27;46203;-79
2023/05/23 13:49:37;;;;;;;;;13.00;11.50;;;;;19.76;50.78;101423.97;5063217;28;45730;-79
2023/05/23 13:52:02;;;;;;;;;12.00;11.00;;;;;19.83;50.64;101431.16;5058278;27;45731;-78
2023/05/23 13:54:28;;;;;;;;;11.75;11.75;;;;;19.88;50.26;101420.09;5070812;28;45686;-82
2023/05/23 13:56:53;;;;;;;;;14.00;12.50;;;;;19.93;50.20;101420.47;5071574;27;45784;-80
2023/05/23 13:59:20;;;;;;;;;11.00;10.00;;;;;19.98;50.20;101435.00;5072170;27;45739;-79
2023/05/23 14:01:46;;;;;;;;;16.50;14.75;;;;;20.02;50.12;101419.59;5071768;27;45638;-81
2023/05/23 14:04:12;;;;;;;;;14.25;13.50;;;;;20.06;50.05;101440.41;5071109;27;46044;-82
2023/05/23 14:06:37;;;;;;;;;17.50;15.00;;;;;20.08;50.31;101435.75;5064119;28;45957;-80
2023/05/23 14:09:03;;;;;;;;;14.00;12.00;;;;;20.09;50.15;101432.13;5064796;28;45736;-81
2023/05/23 14:11:29;;;;;;;;;13.00;11.00;;;;;20.11;49.72;101429.31;5071230;27;46403;-79
2023/05/23 14:13:54;;;;;;;;;15.50;14.00;;;;;20.15;49.90;101436.00;5071414;27;45690;-79
2023/05/23 14:16:20;;;;;;;;;13.50;13.00;;;;;20.17;49.33;101423.41;5057282;28;45774;-80
2023/05/23 14:18:45;;;;;;;;;16.00;14.25;;;;;20.22;49.35;101446.91;5071532;27;45736;-81
2023/05/23 14:21:11;;;;;;;;;12.00;11.25;;;;;20.20;49.88;101430.22;5065650;27;45547;-78
2023/05/23 14:23:36;;;;;;;;;15.75;14.00;;;;;20.18;49.68;101438.38;5063385;28;45822;-80
2023/05/23 14:26:01;;;;;;;;;13.00;13.00;;;;;20.20;50.56;101471.00;5069972;27;45614;-78
2023/05/23 14:28:27;;;;;;;;;15.75;15.00;;;;;20.20;49.80;101448.84;5059391;28;45698;-77
2023/05/23 14:30:54;;;;;;;;;14.50;13.75;;;;;20.19;49.86;101444.56;5069904;28;46286;-78
2023/05/23 14:33:20;;;;;;;;;16.25;14.75;;;;;20.21;48.74;101443.38;5071559;27;46009;-79
2023/05/23 14:35:45;;;;;;;;;15.00;13.00;;;;;20.19;48.84;101450.69;5070008;27;45616;-78
2023/05/23 14:38:11;;;;;;;;;15.25;12.50;;;;;20.17;49.05;101459.81;5071055;27;46066;-76
2023/05/23 14:40:36;;;;;;;;;14.50;13.75;;;;;20.10;48.73;101441.78;5067740;27;45796;-79
2023/05/23 14:43:01;;;;;;;;;15.00;14.25;;;;;20.04;49.18;101445.03;5060906;28;46170;-80
2023/05/23 14:45:27;;;;;;;;;14.25;13.00;;;;;20.01;48.67;101442.69;5056303;28;45648;-77
2023/05/23 14:47:52;;;;;;;;;13.50;12.25;;;;;20.02;49.00;101443.53;5071656;27;46039;-78
2023/05/23 14:50:18;;;;;;;;;15.00;12.00;;;;;20.04;49.08;101445.03;5070996;27;46260;-78
2023/05/23 14:52:44;;;;;;;;;13.00;11.75;;;;;20.07;49.12;101452.75;5071177;27;46007;-78
2023/05/23 14:55:10;;;;;;;;;12.50;12.50;;;;;20.08;47.78;101454.38;5066568;27;45889;-82
2023/05/23 14:57:35;;;;;;;;;12.75;10.75;;;;;20.06;47.88;101453.72;5051228;28;45793;-78